createdAt,value
2019-02-26T00:01:30.872Z,4.60
2019-02-26T00:04:01.907Z,4.50
2019-02-26T00:06:31.159Z,4.60
2019-02-26T00:09:01.953Z,4.70
2019-02-26T00:11:33.196Z,4.60
2019-02-26T00:14:02.311Z,4.60
2019-02-26T00:16:35.214Z,4.50
2019-02-26T00:19:03.143Z,4.50
2019-02-26T00:21:33.716Z,4.40
2019-02-26T00:24:04.869Z,4.40
2019-02-26T00:26:34.500Z,4.40
2019-02-26T00:29:06.607Z,4.30
2019-02-26T00:31:35.879Z,4.40
2019-02-26T00:34:05.923Z,4.30
2019-02-26T00:36:37.773Z,4.30
2019-02-26T00:39:07.635Z,4.30
2019-02-26T00:41:36.883Z,4.30
2019-02-26T00:44:06.584Z,4.30
2019-02-26T00:46:37.086Z,4.30
2019-02-26T00:49:07.643Z,4.30
2019-02-26T00:51:39.002Z,4.30
2019-02-26T00:54:08.079Z,4.30
2019-02-26T00:56:38.627Z,4.20
2019-02-26T00:59:08.319Z,4.20
2019-02-26T01:01:37.594Z,4.10
2019-02-26T01:04:06.859Z,4.10
2019-02-26T01:06:36.031Z,4.10
2019-02-26T01:09:10.686Z,4.00
2019-02-26T01:11:39.206Z,3.90
2019-02-26T01:14:08.444Z,4.00
2019-02-26T01:16:39.387Z,3.90
2019-02-26T01:19:10.370Z,3.90
2019-02-26T01:21:39.510Z,3.90
2019-02-26T01:24:08.691Z,3.90
2019-02-26T01:26:37.944Z,4.00
2019-02-26T01:29:07.202Z,3.90
2019-02-26T01:31:36.540Z,3.90
2019-02-26T01:34:05.766Z,3.80
2019-02-26T01:36:35.048Z,3.70
2019-02-26T01:39:09.295Z,3.60
2019-02-26T01:41:41.398Z,3.70
2019-02-26T01:44:08.899Z,3.70
2019-02-26T01:46:38.905Z,3.60
2019-02-26T01:49:09.185Z,3.60
2019-02-26T01:51:38.406Z,3.60
2019-02-26T01:54:09.844Z,3.50
2019-02-26T01:56:38.564Z,3.50
2019-02-26T01:59:07.836Z,3.60
2019-02-26T02:01:40.014Z,3.60
2019-02-26T02:04:08.817Z,3.50
2019-02-26T02:06:39.262Z,3.40
2019-02-26T02:09:13.286Z,3.40
2019-02-26T02:11:40.892Z,3.30
2019-02-26T02:14:10.908Z,3.30
2019-02-26T02:16:41.033Z,3.30
2019-02-26T02:19:10.195Z,3.30
2019-02-26T02:21:39.362Z,3.30
2019-02-26T02:24:12.697Z,3.20
2019-02-26T02:26:42.944Z,3.30
2019-02-26T02:29:12.608Z,3.20
2019-02-26T02:31:41.332Z,3.10
2019-02-26T02:34:10.518Z,3.10
2019-02-26T02:36:39.846Z,3.00
2019-02-26T02:39:12.973Z,3.00
2019-02-26T02:41:42.209Z,3.00
2019-02-26T02:44:14.502Z,3.10
2019-02-26T02:46:44.370Z,3.10
2019-02-26T02:49:15.243Z,3.00
2019-02-26T02:51:44.043Z,2.90
2019-02-26T02:54:15.534Z,3.00
2019-02-26T02:56:44.412Z,2.90
2019-02-26T02:59:14.535Z,2.90
2019-02-26T03:01:45.789Z,3.00
2019-02-26T03:04:19.678Z,3.00
2019-02-26T03:06:46.636Z,3.00
2019-02-26T03:09:17.721Z,2.90
2019-02-26T03:11:49.309Z,2.90
2019-02-26T03:14:18.698Z,2.90
2019-02-26T03:16:50.843Z,2.90
2019-02-26T03:19:19.125Z,2.90
2019-02-26T03:21:49.636Z,2.90
2019-02-26T03:24:19.269Z,2.80
2019-02-26T03:26:48.520Z,2.90
2019-02-26T03:29:17.676Z,2.90
2019-02-26T03:31:54.704Z,2.90
2019-02-26T03:34:21.833Z,2.80
2019-02-26T03:36:48.704Z,2.80
2019-02-26T03:39:17.891Z,2.80
2019-02-26T03:41:48.649Z,2.60
2019-02-26T03:44:18.110Z,2.60
2019-02-26T03:46:47.374Z,2.60
2019-02-26T03:49:16.541Z,2.60
2019-02-26T03:51:45.774Z,2.50
2019-02-26T03:54:14.972Z,2.50
2019-02-26T03:56:44.487Z,2.50
2019-02-26T03:59:13.739Z,2.50
2019-02-26T04:01:43.073Z,2.50
2019-02-26T04:04:12.238Z,2.50
2019-02-26T04:06:43.834Z,2.50
2019-02-26T04:09:14.489Z,2.50
2019-02-26T04:11:46.989Z,2.50
2019-02-26T04:14:15.364Z,2.50
2019-02-26T04:16:45.060Z,2.50
2019-02-26T04:19:14.293Z,2.50
2019-02-26T04:22:21.487Z,2.50
2019-02-26T04:24:52.311Z,2.50
2019-02-26T04:28:08.097Z,2.50
2019-02-26T04:31:13.039Z,2.40
2019-02-26T04:34:05.091Z,2.40
2019-02-26T04:37:30.698Z,2.30
2019-02-26T04:40:23.618Z,2.20
2019-02-26T04:43:41.684Z,2.10
2019-02-26T04:46:48.746Z,2.20
2019-02-26T04:49:18.215Z,2.20
2019-02-26T04:51:50.292Z,2.10
2019-02-26T04:54:23.974Z,2.10
2019-02-26T04:56:50.978Z,2.10
2019-02-26T04:59:20.624Z,2.10
2019-02-26T05:01:52.343Z,2.10
2019-02-26T05:04:20.796Z,2.10
2019-02-26T05:06:50.040Z,2.10
2019-02-26T05:09:19.391Z,2.10
2019-02-26T05:11:48.551Z,2.10
2019-02-26T05:14:21.434Z,2.00
2019-02-26T05:16:48.716Z,2.00
2019-02-26T05:19:21.240Z,2.00
2019-02-26T05:21:48.856Z,2.00
2019-02-26T05:24:21.818Z,2.00
2019-02-26T05:26:50.633Z,1.90
2019-02-26T05:29:19.956Z,1.80
2019-02-26T05:31:49.243Z,1.80
2019-02-26T05:34:20.724Z,1.70
2019-02-26T05:36:49.561Z,1.80
2019-02-26T05:39:21.067Z,1.80
2019-02-26T05:41:52.294Z,1.80
2019-02-26T05:44:20.589Z,1.80
2019-02-26T05:46:50.854Z,1.80
2019-02-26T05:49:20.906Z,1.90
2019-02-26T05:51:50.211Z,1.90
2019-02-26T05:54:21.610Z,1.90
2019-02-26T05:56:50.442Z,1.90
2019-02-26T05:59:21.704Z,1.90
2019-02-26T06:01:54.722Z,1.90
2019-02-26T06:04:21.557Z,1.80
2019-02-26T06:06:53.161Z,1.80
2019-02-26T06:09:23.530Z,1.70
2019-02-26T06:11:52.729Z,1.70
2019-02-26T06:14:22.007Z,1.70
2019-02-26T06:16:53.253Z,1.70
2019-02-26T06:19:42.240Z,1.70
2019-02-26T06:22:14.520Z,1.80
2019-02-26T06:24:42.278Z,1.80
2019-02-26T06:27:13.775Z,1.80
2019-02-26T06:29:42.494Z,1.80
2019-02-26T06:32:13.742Z,1.80
2019-02-26T06:34:42.931Z,1.80
2019-02-26T06:37:19.879Z,1.80
2019-02-26T06:39:52.669Z,1.80
2019-02-26T06:42:20.247Z,1.90
2019-02-26T06:44:51.238Z,2.00
2019-02-26T06:47:21.137Z,1.90
2019-02-26T06:49:52.746Z,2.00
2019-02-26T06:52:22.254Z,1.90
2019-02-26T06:54:55.618Z,1.80
2019-02-26T06:57:22.400Z,1.80
2019-02-26T06:59:53.647Z,1.80
2019-02-26T07:02:22.621Z,1.90
2019-02-26T07:04:51.976Z,1.90
2019-02-26T07:07:21.266Z,2.00
2019-02-26T07:09:50.512Z,2.10
2019-02-26T07:12:21.714Z,2.10
2019-02-26T07:14:52.669Z,2.10
2019-02-26T07:17:21.640Z,2.10
2019-02-26T07:19:53.074Z,2.20
2019-02-26T07:22:21.815Z,2.30
2019-02-26T07:24:51.937Z,2.40
2019-02-26T07:27:22.399Z,2.60
2019-02-26T07:29:52.483Z,2.70
2019-02-26T07:32:22.897Z,2.70
2019-02-26T07:34:52.820Z,2.70
2019-02-26T07:37:22.142Z,2.80
2019-02-26T07:39:51.633Z,2.90
2019-02-26T07:42:21.139Z,3.00
2019-02-26T07:44:50.446Z,3.10
2019-02-26T07:47:20.031Z,3.20
2019-02-26T07:49:50.664Z,3.30
2019-02-26T07:52:21.586Z,3.40
2019-02-26T07:54:51.896Z,3.50
2019-02-26T07:57:22.951Z,3.60
2019-02-26T07:59:52.458Z,3.80
2019-02-26T08:02:21.714Z,3.90
2019-02-26T08:04:50.962Z,4.00
2019-02-26T08:07:21.515Z,4.10
2019-02-26T08:09:51.417Z,4.20
2019-02-26T08:12:20.597Z,4.30
2019-02-26T08:14:50.189Z,4.60
2019-02-26T08:17:19.913Z,4.80
2019-02-26T08:19:49.420Z,4.90
2019-02-26T08:22:18.869Z,5.00
2019-02-26T08:24:50.309Z,5.10
2019-02-26T08:27:19.000Z,5.10
2019-02-26T08:29:49.448Z,5.20
2019-02-26T08:32:21.046Z,5.30
2019-02-26T08:34:50.433Z,5.40
2019-02-26T08:37:19.773Z,5.50
2019-02-26T08:39:49.023Z,5.60
2019-02-26T08:42:18.361Z,5.80
2019-02-26T08:44:48.653Z,6.10
2019-02-26T08:47:20.646Z,6.50
2019-02-26T08:49:49.561Z,6.60
2019-02-26T08:52:19.917Z,6.90
2019-02-26T08:54:49.897Z,7.10
2019-02-26T08:57:19.217Z,7.20
2019-02-26T08:59:49.758Z,7.40
2019-02-26T09:02:19.480Z,7.40
2019-02-26T09:04:48.710Z,7.50
2019-02-26T09:07:19.538Z,7.50
2019-02-26T09:09:50.119Z,7.60
2019-02-26T09:12:20.593Z,7.70
2019-02-26T09:14:50.840Z,7.90
2019-02-26T09:17:23.146Z,8.10
2019-02-26T09:19:56.082Z,8.20
2019-02-26T09:22:23.591Z,8.30
2019-02-26T09:24:54.486Z,8.40
2019-02-26T09:27:24.822Z,8.60
2019-02-26T09:29:54.940Z,8.70
2019-02-26T09:32:24.199Z,8.80
2019-02-26T09:34:54.473Z,8.90
2019-02-26T09:37:24.290Z,9.10
2019-02-26T09:39:54.274Z,9.20
2019-02-26T09:42:25.581Z,9.30
2019-02-26T09:44:57.596Z,9.30
2019-02-26T09:47:31.546Z,9.40
2019-02-26T09:50:00.412Z,9.50
2019-02-26T09:52:30.343Z,9.60
2019-02-26T09:55:00.712Z,9.70
2019-02-26T09:57:29.919Z,9.90
2019-02-26T10:00:00.247Z,10.20
2019-02-26T10:02:30.076Z,10.30
2019-02-26T10:04:59.425Z,10.40
2019-02-26T10:07:30.712Z,10.50
2019-02-26T10:10:00.459Z,10.30
2019-02-26T10:12:32.168Z,10.30
2019-02-26T10:15:02.468Z,10.50
2019-02-26T10:17:34.718Z,10.60
2019-02-26T10:20:06.736Z,10.80
2019-02-26T10:22:36.170Z,11.10
2019-02-26T10:25:06.663Z,11.30
2019-02-26T10:27:36.655Z,11.50
2019-02-26T10:30:11.272Z,11.70
2019-02-26T10:32:39.686Z,11.70
2019-02-26T10:35:14.031Z,11.70
2019-02-26T10:37:44.364Z,11.90
2019-02-26T10:40:14.474Z,11.80
2019-02-26T10:42:46.221Z,11.90
2019-02-26T10:45:17.377Z,12.20
2019-02-26T10:47:48.826Z,12.50
2019-02-26T10:50:20.400Z,12.50
2019-02-26T10:52:49.446Z,12.70
2019-02-26T10:55:21.868Z,12.70
2019-02-26T10:57:49.619Z,12.90
2019-02-26T11:00:22.576Z,12.90
2019-02-26T11:02:54.121Z,12.90
2019-02-26T11:05:26.266Z,13.20
2019-02-26T11:07:55.761Z,13.20
2019-02-26T11:10:25.682Z,13.20
2019-02-26T11:12:58.551Z,13.40
2019-02-26T11:15:26.838Z,13.50
2019-02-26T11:17:56.672Z,13.50
2019-02-26T11:20:30.049Z,13.50
2019-02-26T11:22:56.924Z,13.50
2019-02-26T11:25:27.429Z,13.60
2019-02-26T11:27:57.107Z,13.80
2019-02-26T11:30:29.512Z,13.80
2019-02-26T11:33:02.015Z,13.80
2019-02-26T11:35:28.423Z,14.10
2019-02-26T11:37:58.219Z,14.20
2019-02-26T11:40:30.343Z,14.20
2019-02-26T11:43:00.064Z,14.30
2019-02-26T11:45:29.857Z,14.60
2019-02-26T11:48:00.994Z,14.80
2019-02-26T11:50:30.116Z,14.80
2019-02-26T11:52:59.639Z,15.00
2019-02-26T11:55:31.777Z,15.20
2019-02-26T11:57:59.941Z,15.20
2019-02-26T12:00:45.477Z,15.10
2019-02-26T12:03:14.759Z,15.20
2019-02-26T12:05:44.013Z,15.50
2019-02-26T12:08:16.310Z,15.50
2019-02-26T12:10:44.289Z,15.50
2019-02-26T12:13:14.660Z,15.90
2019-02-26T12:15:44.446Z,16.00
2019-02-26T12:18:15.430Z,16.20
2019-02-26T12:20:46.601Z,16.30
2019-02-26T12:23:16.169Z,16.40
2019-02-26T12:25:47.196Z,16.40
2019-02-26T12:28:17.427Z,16.60
2019-02-26T12:30:46.864Z,16.80
2019-02-26T12:33:16.186Z,16.70
2019-02-26T12:35:45.454Z,16.60
2019-02-26T12:38:18.850Z,16.70
2019-02-26T12:40:47.177Z,16.70
2019-02-26T12:43:19.120Z,16.80
2019-02-26T12:45:47.503Z,17.00
2019-02-26T12:48:19.643Z,17.10
2019-02-26T12:50:47.711Z,17.20
2019-02-26T12:53:17.997Z,17.30
2019-02-26T12:55:47.878Z,17.40
2019-02-26T12:58:20.146Z,17.30
2019-02-26T13:00:48.059Z,17.20
2019-02-26T13:03:19.798Z,17.10
2019-02-26T13:05:49.156Z,17.10
2019-02-26T13:08:20.549Z,17.40
2019-02-26T13:10:55.582Z,17.20
2019-02-26T13:13:21.580Z,17.30
2019-02-26T13:15:51.261Z,17.40
2019-02-26T13:18:20.499Z,17.40
2019-02-26T13:20:56.742Z,17.50
2019-02-26T13:23:21.805Z,17.70
2019-02-26T13:25:51.345Z,17.80
2019-02-26T13:28:20.582Z,18.10
2019-02-26T13:30:50.232Z,18.10
2019-02-26T13:33:26.402Z,18.00
2019-02-26T13:35:56.330Z,18.10
2019-02-26T13:38:24.882Z,18.10
2019-02-26T13:40:52.437Z,18.20
2019-02-26T13:43:21.688Z,18.10
2019-02-26T13:45:51.048Z,18.10
2019-02-26T13:48:21.398Z,18.10
2019-02-26T13:50:50.639Z,18.30
2019-02-26T13:53:19.905Z,18.50
2019-02-26T13:55:49.083Z,18.70
2019-02-26T13:58:18.325Z,18.90
2019-02-26T14:00:48.043Z,18.80
2019-02-26T14:03:17.643Z,18.80
2019-02-26T14:05:46.963Z,18.70
2019-02-26T14:08:16.247Z,18.70
2019-02-26T14:10:45.511Z,18.80
2019-02-26T14:13:14.823Z,19.00
2019-02-26T14:15:44.174Z,19.20
2019-02-26T14:18:13.477Z,19.40
2019-02-26T14:20:42.983Z,19.40
2019-02-26T14:23:12.252Z,19.30
2019-02-26T14:25:41.436Z,19.40
2019-02-26T14:28:10.693Z,19.20
2019-02-26T14:30:40.035Z,19.10
2019-02-26T14:33:09.204Z,19.10
2019-02-26T14:35:38.522Z,19.10
2019-02-26T14:38:08.342Z,19.20
2019-02-26T14:40:37.573Z,19.20
2019-02-26T14:43:06.924Z,19.20
2019-02-26T14:45:36.194Z,19.30
2019-02-26T14:48:05.382Z,19.40
2019-02-26T14:50:34.727Z,19.50
2019-02-26T14:53:04.003Z,19.70
2019-02-26T14:55:33.167Z,19.90
2019-02-26T14:58:02.487Z,20.30
2019-02-26T15:00:32.018Z,21.10
2019-02-26T15:03:01.265Z,22.20
2019-02-26T15:05:30.906Z,22.70
2019-02-26T15:08:00.250Z,23.20
2019-02-26T15:10:29.507Z,23.40
2019-02-26T15:12:59.027Z,23.60
2019-02-26T15:15:28.320Z,23.40
2019-02-26T15:17:57.628Z,23.20
2019-02-26T15:20:26.792Z,23.00
2019-02-26T15:22:56.069Z,22.80
2019-02-26T15:25:25.361Z,22.90
2019-02-26T15:28:04.289Z,23.20
2019-02-26T15:30:27.127Z,23.40
2019-02-26T15:32:56.459Z,23.70
2019-02-26T15:35:26.111Z,23.70
2019-02-26T15:37:55.389Z,23.10
2019-02-26T15:40:24.578Z,23.10
2019-02-26T15:42:56.283Z,23.40
2019-02-26T15:45:24.830Z,23.30
2019-02-26T15:47:54.087Z,23.30
2019-02-26T15:50:23.414Z,23.10
2019-02-26T15:52:53.645Z,23.50
2019-02-26T15:55:23.060Z,23.50
2019-02-26T15:57:52.304Z,23.40
2019-02-26T16:00:22.725Z,23.60
2019-02-26T16:02:52.364Z,23.40
2019-02-26T16:05:22.885Z,23.20
2019-02-26T16:07:52.603Z,23.20
2019-02-26T16:10:22.788Z,23.30
2019-02-26T16:12:52.131Z,23.40
2019-02-26T16:15:21.432Z,23.40
2019-02-26T16:17:50.684Z,23.40
2019-02-26T16:20:20.172Z,23.20
2019-02-26T16:22:49.853Z,23.30
2019-02-26T16:25:19.025Z,23.10
2019-02-26T16:27:48.350Z,22.80
2019-02-26T16:30:21.442Z,22.90
2019-02-26T16:32:50.758Z,22.70
2019-02-26T16:35:19.957Z,22.60
2019-02-26T16:37:49.301Z,22.60
2019-02-26T16:40:18.861Z,22.70
2019-02-26T16:42:48.554Z,22.40
2019-02-26T16:45:19.634Z,22.10
2019-02-26T16:47:49.438Z,21.50
2019-02-26T16:50:20.597Z,20.70
2019-02-26T16:52:50.112Z,19.90
2019-02-26T16:55:20.154Z,19.30
2019-02-26T16:57:49.793Z,18.80
2019-02-26T17:00:20.659Z,18.30
2019-02-26T17:02:49.986Z,17.90
2019-02-26T17:05:19.314Z,17.60
2019-02-26T17:07:48.684Z,17.30
2019-02-26T17:10:18.411Z,17.00
2019-02-26T17:12:54.085Z,16.70
2019-02-26T17:15:26.996Z,16.50
2019-02-26T17:17:56.402Z,16.30
2019-02-26T17:20:26.459Z,16.10
2019-02-26T17:22:56.015Z,15.80
2019-02-26T17:25:28.647Z,15.70
2019-02-26T17:27:56.795Z,15.50
2019-02-26T17:30:26.160Z,15.30
2019-02-26T17:32:55.504Z,15.20
2019-02-26T17:35:28.703Z,15.10
2019-02-26T17:37:55.763Z,15.00
2019-02-26T17:40:25.052Z,14.90
2019-02-26T17:42:54.538Z,14.80
2019-02-26T17:45:23.850Z,14.60
2019-02-26T17:47:56.528Z,14.50
2019-02-26T17:50:27.044Z,14.40
2019-02-26T17:52:56.461Z,14.30
2019-02-26T17:55:26.134Z,14.20
2019-02-26T17:57:55.528Z,14.10
2019-02-26T18:00:25.439Z,14.00
2019-02-26T18:02:54.785Z,13.90
2019-02-26T18:05:24.351Z,13.70
2019-02-26T18:07:53.621Z,13.60
2019-02-26T18:10:22.996Z,13.50
2019-02-26T18:12:53.938Z,13.50
2019-02-26T18:15:23.271Z,13.50
2019-02-26T18:17:52.600Z,13.50
2019-02-26T18:20:21.986Z,13.40
2019-02-26T18:22:51.247Z,13.40
2019-02-26T18:25:20.433Z,13.30
2019-02-26T18:27:49.713Z,13.30
2019-02-26T18:30:20.877Z,13.20
2019-02-26T18:32:53.161Z,13.10
2019-02-26T18:35:21.252Z,12.90
2019-02-26T18:37:50.633Z,12.70
2019-02-26T18:40:19.939Z,12.60
2019-02-26T18:42:49.445Z,12.50
2019-02-26T18:45:20.962Z,12.40
2019-02-26T18:47:50.227Z,12.30
2019-02-26T18:50:19.636Z,12.20
2019-02-26T18:52:49.047Z,12.10
2019-02-26T18:55:18.989Z,12.10
2019-02-26T18:57:48.491Z,11.90
2019-02-26T19:00:25.680Z,11.90
2019-02-26T19:02:53.819Z,11.80
2019-02-26T19:05:23.774Z,11.70
2019-02-26T19:07:53.272Z,11.70
2019-02-26T19:10:22.727Z,11.70
2019-02-26T19:12:52.092Z,11.60
2019-02-26T19:15:21.312Z,11.40
2019-02-26T19:17:51.951Z,11.20
2019-02-26T19:20:23.743Z,11.00
2019-02-26T19:22:53.024Z,11.00
2019-02-26T19:25:22.428Z,11.00
2019-02-26T19:27:53.079Z,10.90
2019-02-26T19:30:23.297Z,10.80
2019-02-26T19:32:53.110Z,10.70
2019-02-26T19:35:22.567Z,10.80
2019-02-26T19:37:55.224Z,10.70
2019-02-26T19:40:31.140Z,10.70
2019-02-26T19:43:00.393Z,10.70
2019-02-26T19:45:29.722Z,10.70
2019-02-26T19:47:59.066Z,10.70
2019-02-26T19:50:28.393Z,10.60
2019-02-26T19:53:02.164Z,10.40
2019-02-26T19:55:31.650Z,10.20
2019-02-26T19:58:03.391Z,10.00
2019-02-26T20:00:31.934Z,10.00
2019-02-26T20:03:04.869Z,9.90
2019-02-26T20:05:32.368Z,9.90
2019-02-26T20:08:04.826Z,9.90
2019-02-26T20:10:33.132Z,9.90
2019-02-26T20:13:04.011Z,9.80
2019-02-26T20:15:33.805Z,9.90
2019-02-26T20:18:03.172Z,9.80
2019-02-26T20:20:40.588Z,9.70
2019-02-26T20:23:06.050Z,9.60
2019-02-26T20:25:34.573Z,9.50
2019-02-26T20:28:05.557Z,9.50
2019-02-26T20:30:35.093Z,9.40
2019-02-26T20:33:04.834Z,9.40
2019-02-26T20:35:34.271Z,9.40
2019-02-26T20:38:03.740Z,9.40
2019-02-26T20:40:33.110Z,9.40
2019-02-26T20:43:05.176Z,9.40
2019-02-26T20:45:33.536Z,9.40
2019-02-26T20:48:04.201Z,9.40
2019-02-26T20:50:33.974Z,9.40
2019-02-26T20:53:05.651Z,9.40
2019-02-26T20:55:34.381Z,9.30
2019-02-26T20:58:03.627Z,9.30
2019-02-26T21:00:32.893Z,9.20
2019-02-26T21:03:02.484Z,9.20
2019-02-26T21:05:31.788Z,9.30
2019-02-26T21:08:01.128Z,9.30
2019-02-26T21:10:30.505Z,9.20
2019-02-26T21:13:01.834Z,9.20
2019-02-26T21:15:30.642Z,9.10
2019-02-26T21:17:59.859Z,9.00
2019-02-26T21:20:29.120Z,8.90
2019-02-26T21:22:58.448Z,8.90
2019-02-26T21:25:27.732Z,8.90
2019-02-26T21:28:00.470Z,8.90
2019-02-26T21:30:28.216Z,9.00
2019-02-26T21:32:58.614Z,9.00
2019-02-26T21:35:28.238Z,8.90
2019-02-26T21:37:57.491Z,8.90
2019-02-26T21:40:26.803Z,8.80
2019-02-26T21:42:56.048Z,8.80
2019-02-26T21:45:25.300Z,8.80
2019-02-26T21:47:54.499Z,8.70
2019-02-26T21:50:23.758Z,8.70
2019-02-26T21:53:00.246Z,8.60
2019-02-26T21:55:23.999Z,8.70
2019-02-26T21:57:54.816Z,8.60
2019-02-26T22:00:25.999Z,8.60
2019-02-26T22:02:55.287Z,8.60
2019-02-26T22:05:24.563Z,8.40
2019-02-26T22:07:53.913Z,8.30
2019-02-26T22:10:23.359Z,8.20
2019-02-26T22:12:56.598Z,8.20
2019-02-26T22:15:23.667Z,8.00
2019-02-26T22:17:53.009Z,8.00
2019-02-26T22:20:35.497Z,8.00
2019-02-26T22:22:53.309Z,8.00
2019-02-26T22:25:22.624Z,7.90
2019-02-26T22:27:51.927Z,7.90
2019-02-26T22:30:22.142Z,7.90
2019-02-26T22:32:52.312Z,7.90
2019-02-26T22:35:25.607Z,7.90
2019-02-26T22:37:52.688Z,7.80
2019-02-26T22:40:22.836Z,7.70
2019-02-26T22:42:52.203Z,7.70
2019-02-26T22:45:22.249Z,7.60
2019-02-26T22:47:51.730Z,7.50
2019-02-26T22:50:21.094Z,7.50
2019-02-26T22:52:50.300Z,7.40
2019-02-26T22:55:19.583Z,7.20
2019-02-26T22:57:48.849Z,7.20
2019-02-26T23:03:46.562Z,7.20
2019-02-26T23:06:16.677Z,7.10
2019-02-26T23:08:46.320Z,7.10
2019-02-26T23:11:16.497Z,7.00
2019-02-26T23:13:45.785Z,6.90
2019-02-26T23:16:18.005Z,6.90
2019-02-26T23:18:46.567Z,6.90
2019-02-26T23:21:16.275Z,6.90
2019-02-26T23:23:45.895Z,6.80
2019-02-26T23:26:15.246Z,6.80
2019-02-26T23:28:44.724Z,6.70
2019-02-26T23:31:14.524Z,6.70
2019-02-26T23:33:47.886Z,6.70
2019-02-26T23:36:15.031Z,6.70
2019-02-26T23:38:44.732Z,6.60
2019-02-26T23:41:14.218Z,6.60
2019-02-26T23:43:45.419Z,6.60
2019-02-26T23:46:14.755Z,6.60
2019-02-26T23:48:44.086Z,6.50
2019-02-26T23:51:13.363Z,6.50
2019-02-26T23:53:42.591Z,6.40
2019-02-26T23:56:11.855Z,6.20
2019-02-26T23:58:41.077Z,6.10
